Terminal Aerodrome Forecast
Issued by NWS Sioux Falls, SD

Home | Current Version | Previous Version | Text Only | Print | Product List | Glossary Off
Versions: 1 2 3 4 5 6 7 8 9 10 11 12 13 14 15 16 17 18 19 20 21 22 23 24 25 26 27 28 29 30 31

000
FTUS43 KFSD 241730
TAFSUX
TAF
KSUX 241730Z 2418/2518 27010KT P6SM OVC150
     FM250000 29009KT P6SM -RA OVC050
     FM250400 32015G25KT P6SM -RA OVC035
     FM250700 33023G33KT P6SM -RA OVC020
     FM251100 34022G33KT 4SM -SN OVC020=

USA.gov is the U.S. government's official web portal to all federal, state and local government web resources and services.